Terminal Aerodrome Forecast
Issued by NWS

Home | Current Version | Previous Version | Text Only | Print | Product List | Glossary On
Versions: 1 2 3 4 5 6 7 8 9 10 11 12
000
FTUS45 KABQ 241100
TAFFMN
TAF
KFMN 241121Z 2412/2512 27011KT P6SM BKN100
     FM241700 28019G29KT P6SM BKN100
      TEMPO 2419/2423 30030G40KT 6SM BLDU
     FM242300 31021G31KT P6SM SCT100
     FM250200 31011KT P6SM SCT200
     FM250900 08008KT P6SM FEW100=

USA.gov is the U.S. government's official web portal to all federal, state and local government web resources and services.